Bad Axe, MI

11:55 AM EDT on May 04, 2015 (GMT -0400)
Huron Doll Repair Bad Axe (989) 269-7766 | | Change Station
CLOSE
Current Station
Personal Weather Station
Location: Bad Axe, MI
Elevation: 761 ft
Nearby Weather Stations

Elev 761 ft 43.80 °N, 83.02 °W | Updated 7 minutes ago

Overcast
Overcast
60.7 °F
Feels Like 60.7 °F
N
11.0
Wind Variable Wind from SW

Today
High -- | Low -- °F
--% Chance of Precip.
Yesterday
High -- | Low -- °F
Precip. -- in
6:20 AM 8:38 PM
Full, 100% visible
Pressure 30.01 in
Visibility 10.0 miles
Clouds Mostly Cloudy 4900 ft
Mostly Cloudy 6000 ft
Overcast 11000 ft
Dew Point 61 °F
Humidity 100%
Rainfall 0.02 in
Snow Depth Not available.
UV 3 out of 12
Pollen 8.60 out of 12
Air Quality Not available.
Flu Activity Regional
METAR KBAX 041534Z AUTO 24008KT 10SM BKN049 BKN060 OVC110 18/14 A3001 RMK AO2 T01800135

More Conditions Fewer Conditions

Pressure 30.01 in
Visibility 10.0 miles
Clouds Mostly Cloudy 4900 ft
Mostly Cloudy 6000 ft
Overcast 11000 ft
Dew Point 61 °F
Humidity 100%
Rainfall 0.02 in
Snow Depth Not available.
UV 3 out of 12
Pollen 8.60 out of 12
Air Quality Not available.
Flu Activity Regional
METAR KBAX 041534Z AUTO 24008KT 10SM BKN049 BKN060 OVC110 18/14 A3001 RMK AO2 T01800135

More Conditions Fewer Conditions

Nepal has a long way to go to dig out and rebuild from a devastating earthquake. We have teamed up with several charities and organizations to make contributing to the relief effort as easy as possible.
How you can help: Portlight Strategies | Red Cross

10-Day Weather Forecast

Almanac

Astronomy

May. 04, 2015 Rise Set
Actual Time
Civil Twilight
Nautical Twilight
Astronomical Twilight
Moon
Length of Visible Light
Length of Day
Tomorrow will be .
, % of the Moon is Illuminated

Today's Extremes

State Highs State Lows

Community

WunderPhotos

Upload Photos

1,818,647 photos uploaded!

WunderBlogs® & News

Nearby

Air Quality

  Air Quality AQ Index Pollutant
Not available.

Snow Depth

Station Depth Elevation

Earthquake Activity

City Distance Mag. Time & Date
Minimum magnitude displayed is 2.5.

Coastal Water Temperatures

Place Temperature

Stations

Nearby Weather Stations

Station Location Temp. Windchill Dew Point Humidity Wind Precip. Elev Updated Type